Time;durP1;ratioP1;P1;durP2;ratioP2;P2;SDS_P1;SDS_P2;PMS_P1;PMS_P2;Temp;Humidity;BMP_temperature;BMP_pressure;BME280_temperature;BME280_humidity;BME280_pressure;Samples;Min_cycle;Max_cycle;Signal;HPM_P1;HPM_P2
2022/04/19 00:01:56;;;;;;;9.67;1.77;;;7.80;99.90;;;;;;5011139;28;20294;-59
2022/04/19 00:04:22;;;;;;;6.00;1.20;;;7.70;99.90;;;;;;5010761;28;20178;-59
2022/04/19 00:06:48;;;;;;;8.43;1.80;;;7.60;99.90;;;;;;5010764;28;20220;-59
2022/04/19 00:09:32;;;;;;;8.90;1.80;;;7.60;99.90;;;;;;5009464;28;20648;-60
2022/04/19 00:11:58;;;;;;;13.77;2.40;;;7.50;99.90;;;;;;5010833;28;20178;-60
2022/04/19 00:14:24;;;;;;;14.20;2.27;;;7.50;99.90;;;;;;5010934;28;20208;-59
2022/04/19 00:16:49;;;;;;;14.60;2.93;;;7.50;99.90;;;;;;5010758;28;20177;-60
2022/04/19 00:19:15;;;;;;;10.77;1.23;;;7.50;99.90;;;;;;5010525;28;20171;-59
2022/04/19 00:21:41;;;;;;;12.10;2.30;;;7.10;99.90;;;;;;5010437;28;20177;-59
2022/04/19 00:24:07;;;;;;;16.10;2.23;;;7.40;99.90;;;;;;5010582;28;20538;-59
2022/04/19 00:26:33;;;;;;;10.07;2.20;;;7.30;99.90;;;;;;5010908;28;20626;-59
2022/04/19 00:28:59;;;;;;;11.50;2.00;;;7.40;99.90;;;;;;5010835;28;20282;-59
2022/04/19 00:31:25;;;;;;;17.53;2.43;;;7.30;99.90;;;;;;5010711;28;20189;-59
2022/04/19 00:33:51;;;;;;;10.80;1.90;;;7.30;99.90;;;;;;5010573;28;20261;-59
2022/04/19 00:36:18;;;;;;;8.33;2.20;;;7.30;99.90;;;;;;5010568;28;20179;-59
2022/04/19 00:38:44;;;;;;;13.67;2.37;;;7.50;99.90;;;;;;5010778;28;20222;-59
2022/04/19 00:41:11;;;;;;;7.17;1.83;;;7.20;99.90;;;;;;5010410;28;20179;-60
2022/04/19 00:43:37;;;;;;;6.17;2.00;;;6.80;99.90;;;;;;5010574;28;20213;-60
2022/04/19 00:46:03;;;;;;;7.30;2.00;;;7.20;99.90;;;;;;5010362;28;20170;-59
2022/04/19 00:48:29;;;;;;;9.60;2.23;;;7.20;99.90;;;;;;5010365;28;20576;-60
2022/04/19 00:50:56;;;;;;;12.47;2.17;;;7.10;99.90;;;;;;5010698;28;20278;-60
2022/04/19 00:53:24;;;;;;;8.40;2.10;;;7.00;99.90;;;;;;5010553;28;20173;-58
2022/04/19 00:55:50;;;;;;;12.27;2.40;;;7.00;99.90;;;;;;5010265;28;20240;-58
2022/04/19 00:58:16;;;;;;;10.90;2.30;;;7.00;99.90;;;;;;5010440;28;20166;-58
2022/04/19 01:00:43;;;;;;;17.17;2.60;;;6.90;99.90;;;;;;5010446;28;20229;-60
2022/04/19 01:03:09;;;;;;;15.70;2.60;;;7.00;99.90;;;;;;5010093;28;20242;-59
2022/04/19 01:05:36;;;;;;;13.07;2.10;;;7.00;99.90;;;;;;5010250;28;20239;-58
2022/04/19 01:08:02;;;;;;;10.40;2.60;;;7.00;99.90;;;;;;5010169;28;20181;-59
2022/04/19 01:10:28;;;;;;;16.00;3.37;;;7.00;99.90;;;;;;5010133;28;20171;-59
2022/04/19 01:15:41;;;;;;;13.47;2.80;;;7.00;99.90;;;;;;5010597;28;20201;-59
2022/04/19 01:18:08;;;;;;;9.13;2.17;;;7.10;99.90;;;;;;5010334;28;20202;-59
2022/04/19 01:20:34;;;;;;;12.30;2.70;;;7.10;99.90;;;;;;5010059;28;20183;-59
2022/04/19 01:23:00;;;;;;;9.07;2.33;;;7.00;99.90;;;;;;5010040;28;20226;-59
2022/04/19 01:25:26;;;;;;;11.90;2.80;;;7.00;99.90;;;;;;5009967;28;20178;-59
2022/04/19 01:27:52;;;;;;;10.47;3.27;;;6.90;99.90;;;;;;5010020;28;20168;-59
2022/04/19 01:30:19;;;;;;;8.67;2.57;;;6.80;99.90;;;;;;5009894;28;20205;-59
2022/04/19 01:32:52;;;;;;;16.27;2.53;;;6.80;99.90;;;;;;5013211;28;20178;-58
2022/04/19 01:35:21;;;;;;;8.40;2.20;;;6.70;99.90;;;;;;5013824;28;20561;-58
2022/04/19 01:37:51;;;;;;;13.53;2.50;;;6.70;99.90;;;;;;5013511;28;20228;-59
2022/04/19 01:40:17;;;;;;;9.77;2.27;;;6.60;99.90;;;;;;5013502;28;20166;-59
2022/04/19 01:42:46;;;;;;;8.40;2.20;;;6.50;99.90;;;;;;5013455;28;20285;-58
2022/04/19 01:45:17;;;;;;;11.73;2.20;;;6.50;99.90;;;;;;5013710;28;20179;-59
2022/04/19 01:47:43;;;;;;;11.80;2.33;;;6.50;99.90;;;;;;5013451;28;20186;-59
2022/04/19 01:50:10;;;;;;;8.53;2.40;;;6.50;99.90;;;;;;5013364;28;20170;-59
2022/04/19 01:52:40;;;;;;;10.00;2.37;;;6.40;99.90;;;;;;5013333;28;20210;-59
2022/04/19 01:55:08;;;;;;;9.17;2.70;;;6.30;99.90;;;;;;5013226;28;20170;-59
2022/04/19 01:57:35;;;;;;;8.63;2.00;;;6.40;99.90;;;;;;5012985;28;20322;-59
2022/04/19 02:00:02;;;;;;;9.77;3.17;;;6.30;99.90;;;;;;5013092;28;20186;-60
2022/04/19 02:02:28;;;;;;;9.53;2.40;;;6.30;99.90;;;;;;5013148;28;20301;-59
2022/04/19 02:04:54;;;;;;;7.37;2.20;;;6.20;99.90;;;;;;5013196;28;20232;-61
2022/04/19 02:07:20;;;;;;;6.27;2.00;;;6.20;99.90;;;;;;5012898;28;20667;-58
2022/04/19 02:09:47;;;;;;;8.73;2.30;;;6.20;99.90;;;;;;5012806;28;20178;-59
2022/04/19 02:12:13;;;;;;;6.97;2.10;;;6.10;99.90;;;;;;5011753;28;20170;-58
2022/04/19 02:14:41;;;;;;;8.53;2.33;;;6.20;99.90;;;;;;5013071;28;20185;-58
2022/04/19 02:17:09;;;;;;;7.30;2.30;;;6.20;99.90;;;;;;5012842;28;20190;-58
2022/04/19 02:19:35;;;;;;;9.00;2.33;;;6.20;99.90;;;;;;5012770;28;20190;-59
2022/04/19 02:22:02;;;;;;;7.63;2.20;;;6.30;99.90;;;;;;5012671;28;20289;-59
2022/04/19 02:24:27;;;;;;;6.23;2.20;;;6.40;99.90;;;;;;5012659;28;20174;-59
2022/04/19 02:26:54;;;;;;;11.97;2.40;;;6.40;99.90;;;;;;5012852;28;20190;-59
2022/04/19 02:29:19;;;;;;;8.23;2.40;;;6.50;99.90;;;;;;5012820;28;20174;-59
2022/04/19 02:31:46;;;;;;;9.70;2.40;;;6.50;99.90;;;;;;5012495;28;20888;-59
2022/04/19 02:34:11;;;;;;;11.40;2.07;;;6.50;99.90;;;;;;5012600;28;20170;-59
2022/04/19 02:36:39;;;;;;;8.33;2.20;;;6.50;99.90;;;;;;5012390;28;20174;-59
2022/04/19 02:39:05;;;;;;;8.33;2.30;;;6.50;99.90;;;;;;5012496;28;20273;-59
2022/04/19 02:41:31;;;;;;;11.00;2.63;;;6.50;99.90;;;;;;5012103;28;20266;-59
2022/04/19 02:43:59;;;;;;;12.57;2.20;;;6.40;99.90;;;;;;5011628;28;20293;-59
2022/04/19 02:46:24;;;;;;;13.00;2.47;;;6.30;99.90;;;;;;5012225;28;20174;-59
2022/04/19 02:48:50;;;;;;;8.07;1.93;;;6.20;99.90;;;;;;5012122;28;20177;-59
2022/04/19 02:51:16;;;;;;;9.93;2.30;;;6.10;99.90;;;;;;5012102;28;20223;-59
2022/04/19 02:53:43;;;;;;;11.43;2.50;;;6.10;99.90;;;;;;5012258;28;20166;-59
2022/04/19 02:56:09;;;;;;;9.67;2.30;;;6.00;99.90;;;;;;5011999;28;20305;-59
2022/04/19 02:58:34;;;;;;;6.13;2.10;;;6.00;99.90;;;;;;5012091;28;20232;-59
2022/04/19 03:01:01;;;;;;;12.23;2.90;;;6.00;99.90;;;;;;5011934;28;20170;-59
2022/04/19 03:03:29;;;;;;;8.07;2.70;;;5.90;99.90;;;;;;5011722;28;20306;-59
2022/04/19 03:05:57;;;;;;;15.60;3.17;;;5.90;99.90;;;;;;5011781;28;20733;-59
2022/04/19 03:08:27;;;;;;;8.63;2.57;;;5.90;99.90;;;;;;5011869;28;20261;-59
2022/04/19 03:10:53;;;;;;;10.03;2.60;;;6.00;99.90;;;;;;5011951;28;20166;-59
2022/04/19 03:13:19;;;;;;;9.20;2.40;;;5.90;99.90;;;;;;5011660;28;20169;-59
2022/04/19 03:15:45;;;;;;;8.07;2.70;;;5.90;99.90;;;;;;5011747;28;20178;-59
2022/04/19 03:18:11;;;;;;;11.93;2.53;;;5.90;99.90;;;;;;5011757;28;20182;-59
2022/04/19 03:20:36;;;;;;;15.37;2.73;;;5.90;99.90;;;;;;5010543;28;20548;-59
2022/04/19 03:28:31;;;;;;;12.47;2.83;;;5.80;99.90;;;;;;5011941;28;20182;-59
2022/04/19 03:30:57;;;;;;;7.40;2.33;;;5.80;99.90;;;;;;5011621;28;20167;-59
2022/04/19 03:33:22;;;;;;;11.47;2.70;;;5.70;99.90;;;;;;5011671;28;20540;-59
2022/04/19 03:35:48;;;;;;;6.97;2.70;;;5.70;99.90;;;;;;5011542;28;20178;-59
2022/04/19 03:38:14;;;;;;;8.73;2.20;;;5.60;99.90;;;;;;5011627;28;20556;-59
2022/04/19 03:40:40;;;;;;;10.27;2.77;;;5.60;99.90;;;;;;5011292;28;20237;-59
2022/04/19 03:43:07;;;;;;;8.30;3.07;;;5.60;99.90;;;;;;5011003;28;20296;-59
2022/04/19 03:45:33;;;;;;;8.03;2.33;;;5.70;99.90;;;;;;5011158;28;20178;-59
2022/04/19 03:48:00;;;;;;;10.23;2.63;;;5.70;99.90;;;;;;5011167;28;20170;-60
2022/04/19 03:50:26;;;;;;;8.90;2.80;;;5.60;99.90;;;;;;5009763;28;20225;-59
2022/04/19 03:52:52;;;;;;;7.03;2.40;;;5.70;99.90;;;;;;5011221;28;20202;-59
2022/04/19 03:55:19;;;;;;;9.03;2.50;;;5.70;99.90;;;;;;5010226;28;20176;-59
2022/04/19 03:57:44;;;;;;;14.27;2.83;;;5.80;99.90;;;;;;5010886;28;20226;-59
2022/04/19 04:00:10;;;;;;;8.90;2.70;;;6.40;99.90;;;;;;5011071;28;20181;-59
2022/04/19 04:02:36;;;;;;;12.00;2.77;;;5.80;99.90;;;;;;5010781;28;20237;-60
2022/04/19 04:05:03;;;;;;;9.53;2.90;;;5.80;99.90;;;;;;5011155;28;20224;-60
2022/04/19 04:07:30;;;;;;;11.47;2.70;;;5.80;99.90;;;;;;5010991;28;20162;-59
2022/04/19 04:09:56;;;;;;;6.70;2.33;;;5.80;99.90;;;;;;5010837;28;20181;-59
2022/04/19 04:12:22;;;;;;;16.03;2.60;;;5.80;99.90;;;;;;5010916;28;20558;-60
2022/04/19 04:14:48;;;;;;;7.93;2.90;;;5.80;99.90;;;;;;5010735;28;20683;-61
2022/04/19 04:17:13;;;;;;;8.33;2.50;;;5.80;99.90;;;;;;5010934;28;20170;-59
2022/04/19 04:19:39;;;;;;;11.80;3.07;;;5.90;99.90;;;;;;5010784;28;20179;-59
2022/04/19 04:22:05;;;;;;;11.83;2.73;;;5.80;99.90;;;;;;5010562;28;20227;-59
2022/04/19 04:24:32;;;;;;;7.40;2.20;;;5.80;99.90;;;;;;5010779;28;20377;-59
2022/04/19 04:26:58;;;;;;;5.73;2.27;;;5.80;99.90;;;;;;5010660;28;20213;-59
2022/04/19 04:29:23;;;;;;;15.40;2.90;;;5.70;99.90;;;;;;5010640;28;20175;-59
2022/04/19 04:31:49;;;;;;;7.93;2.33;;;5.80;99.90;;;;;;5010371;28;20249;-60
2022/04/19 04:34:15;;;;;;;7.60;2.27;;;5.70;99.90;;;;;;5010836;28;20540;-59
2022/04/19 04:36:41;;;;;;;4.60;2.17;;;5.70;99.90;;;;;;5010780;28;20732;-59
2022/04/19 04:39:06;;;;;;;8.23;2.53;;;5.70;99.90;;;;;;5010423;28;20498;-60
2022/04/19 04:41:32;;;;;;;10.73;2.60;;;5.80;99.90;;;;;;5009307;28;20562;-60
2022/04/19 04:43:58;;;;;;;6.83;2.20;;;5.70;99.90;;;;;;5010350;28;20217;-60
2022/04/19 04:51:52;;;;;;;8.53;2.77;;;5.60;99.90;;;;;;5010921;28;20532;-60
2022/04/19 04:54:18;;;;;;;9.47;2.73;;;5.50;99.90;;;;;;5010550;28;20179;-59
2022/04/19 04:56:44;;;;;;;8.73;2.97;;;5.50;99.90;;;;;;5010444;28;20229;-60
2022/04/19 04:59:10;;;;;;;12.77;2.80;;;5.50;99.90;;;;;;5010532;28;20200;-60
2022/04/19 05:01:35;;;;;;;8.47;2.40;;;5.90;99.90;;;;;;5010615;28;20167;-60
2022/04/19 05:04:01;;;;;;;6.80;2.77;;;5.60;99.90;;;;;;5010279;28;20605;-60
2022/04/19 05:06:27;;;;;;;12.63;2.93;;;5.50;99.90;;;;;;5011441;28;20174;-60
2022/04/19 05:08:53;;;;;;;11.33;3.10;;;5.60;99.90;;;;;;5014085;28;20191;-60
2022/04/19 05:11:18;;;;;;;6.60;2.67;;;5.60;99.90;;;;;;5014088;28;20166;-59
2022/04/19 05:13:44;;;;;;;10.13;2.80;;;5.80;99.90;;;;;;5014113;28;20177;-59
2022/04/19 05:16:10;;;;;;;8.37;3.03;;;5.80;99.90;;;;;;5014055;28;20174;-59
2022/04/19 05:18:35;;;;;;;10.50;2.97;;;5.80;99.90;;;;;;5013967;28;20262;-59
2022/04/19 05:21:02;;;;;;;9.67;3.50;;;5.90;99.90;;;;;;5013925;28;20177;-59
2022/04/19 05:23:27;;;;;;;8.93;3.10;;;5.90;99.90;;;;;;5013800;28;20677;-59
2022/04/19 05:25:53;;;;;;;10.43;4.20;;;5.90;99.90;;;;;;5013891;28;20174;-59
2022/04/19 05:28:19;;;;;;;10.73;3.70;;;5.90;99.90;;;;;;5013691;28;20536;-59
2022/04/19 05:30:45;;;;;;;11.07;3.63;;;5.90;99.90;;;;;;5013774;28;20574;-59
2022/04/19 05:33:11;;;;;;;12.47;3.60;;;5.80;99.90;;;;;;5013678;28;20266;-59
2022/04/19 05:35:38;;;;;;;16.17;3.80;;;5.90;99.90;;;;;;5013694;28;20651;-60
2022/04/19 05:38:03;;;;;;;12.43;3.17;;;5.90;99.90;;;;;;5013494;28;20181;-60
2022/04/19 05:40:29;;;;;;;10.17;4.20;;;5.90;99.90;;;;;;5013569;28;20166;-60
2022/04/19 05:42:55;;;;;;;12.37;3.37;;;6.00;99.90;;;;;;5013687;28;20218;-59
2022/04/19 05:45:21;;;;;;;10.33;3.73;;;6.00;99.90;;;;;;5013612;28;20614;-59
2022/04/19 05:47:47;;;;;;;5.90;2.93;;;6.00;99.90;;;;;;5012293;28;20556;-59
2022/04/19 05:50:13;;;;;;;11.93;3.47;;;6.10;99.90;;;;;;5013434;28;20185;-59
2022/04/19 05:52:38;;;;;;;9.33;3.30;;;6.00;99.90;;;;;;5013237;28;20175;-59
2022/04/19 05:55:05;;;;;;;13.47;3.50;;;6.00;99.90;;;;;;5013177;28;20194;-59
2022/04/19 05:57:31;;;;;;;12.20;3.30;;;6.00;99.90;;;;;;5012775;28;20226;-59
2022/04/19 05:59:56;;;;;;;15.23;2.90;;;6.00;99.90;;;;;;5012764;28;20656;-59
2022/04/19 06:05:07;;;;;;;8.00;3.40;;;6.10;99.90;;;;;;5012917;28;20336;-57
2022/04/19 06:07:33;;;;;;;18.53;3.57;;;6.20;99.90;;;;;;5012795;28;20241;-60
2022/04/19 06:09:59;;;;;;;11.00;3.77;;;6.20;99.90;;;;;;5012983;28;20175;-59
2022/04/19 06:12:25;;;;;;;10.67;3.47;;;6.30;99.90;;;;;;5012849;28;20185;-59
2022/04/19 06:14:51;;;;;;;11.77;3.33;;;6.40;99.90;;;;;;5012902;28;20589;-59
2022/04/19 06:17:18;;;;;;;16.17;3.27;;;6.40;99.90;;;;;;5012275;28;20262;-59
2022/04/19 06:19:44;;;;;;;8.80;3.37;;;6.60;99.90;;;;;;5012423;28;20171;-59
2022/04/19 06:22:10;;;;;;;5.97;3.10;;;6.70;99.90;;;;;;5012807;28;20257;-59
2022/04/19 06:24:36;;;;;;;10.63;3.47;;;6.80;99.90;;;;;;5012754;28;20183;-59
2022/04/19 06:27:03;;;;;;;20.37;4.10;;;6.80;99.90;;;;;;5012797;28;20186;-59
2022/04/19 06:29:28;;;;;;;9.63;3.50;;;6.90;99.90;;;;;;5012486;28;20176;-60
2022/04/19 06:31:54;;;;;;;15.23;4.17;;;7.10;99.90;;;;;;5012511;28;20251;-60
2022/04/19 06:34:20;;;;;;;12.90;3.70;;;7.20;99.90;;;;;;5012362;28;20564;-59
2022/04/19 06:36:46;;;;;;;8.57;3.80;;;7.20;99.90;;;;;;5012328;28;20166;-59
2022/04/19 06:39:12;;;;;;;9.37;4.00;;;7.20;99.90;;;;;;5012340;28;20224;-59
2022/04/19 06:41:37;;;;;;;13.57;3.90;;;7.30;99.90;;;;;;5011994;28;20185;-59
2022/04/19 06:44:05;;;;;;;22.07;4.67;;;7.40;99.90;;;;;;5011969;28;20202;-60
2022/04/19 06:46:31;;;;;;;11.23;3.90;;;7.30;99.90;;;;;;5012284;28;20178;-59
2022/04/19 06:48:58;;;;;;;12.27;4.30;;;7.40;99.90;;;;;;5012004;28;20174;-57
2022/04/19 06:51:25;;;;;;;10.50;4.57;;;7.50;99.90;;;;;;5012031;28;20167;-57
2022/04/19 06:53:51;;;;;;;10.63;4.73;;;7.60;99.90;;;;;;5012154;28;20175;-57
2022/04/19 06:56:18;;;;;;;16.20;4.80;;;7.70;99.90;;;;;;5011561;28;20300;-58
2022/04/19 06:58:44;;;;;;;10.20;4.50;;;7.80;99.90;;;;;;5011793;28;20190;-58
2022/04/19 07:01:11;;;;;;;11.80;4.90;;;8.10;99.90;;;;;;5011801;28;20232;-58
2022/04/19 07:03:37;;;;;;;13.47;4.13;;;8.00;99.90;;;;;;5011353;28;20301;-58
2022/04/19 07:06:05;;;;;;;16.57;4.10;;;8.10;99.90;;;;;;5011439;28;20251;-58
2022/04/19 07:08:31;;;;;;;11.40;3.73;;;8.10;99.90;;;;;;5012028;28;20186;-58
2022/04/19 07:10:58;;;;;;;15.17;3.87;;;8.20;99.90;;;;;;5011614;28;20257;-58
2022/04/19 07:13:24;;;;;;;9.53;3.77;;;8.30;99.90;;;;;;5011656;28;20229;-58
2022/04/19 07:15:50;;;;;;;12.17;3.80;;;8.40;99.90;;;;;;5011322;28;20178;-58
2022/04/19 07:18:17;;;;;;;6.23;3.00;;;8.50;99.90;;;;;;5011478;28;20232;-58
2022/04/19 07:28:56;;;;;;;11.87;3.20;;;8.90;99.90;;;;;;5011067;28;20269;-58
2022/04/19 07:31:22;;;;;;;9.47;3.13;;;8.80;99.90;;;;;;5011198;28;20261;-58
2022/04/19 07:33:48;;;;;;;8.47;3.40;;;8.90;99.90;;;;;;5011460;28;20517;-58
2022/04/19 07:36:14;;;;;;;11.80;3.13;;;8.90;99.90;;;;;;5011444;28;20233;-58
2022/04/19 07:38:40;;;;;;;11.80;3.30;;;9.00;99.90;;;;;;5011036;28;20585;-58
2022/04/19 07:41:07;;;;;;;7.70;3.53;;;9.10;99.90;;;;;;5011128;28;20230;-58
2022/04/19 07:43:33;;;;;;;13.87;3.30;;;9.60;99.90;;;;;;5010926;28;20206;-58
2022/04/19 07:45:58;;;;;;;9.67;3.30;;;9.10;99.90;;;;;;5011060;28;20503;-58
2022/04/19 07:48:24;;;;;;;14.07;2.70;;;9.30;99.90;;;;;;5011010;28;20570;-58
2022/04/19 07:50:50;;;;;;;11.13;2.67;;;9.40;99.90;;;;;;5010757;28;20170;-58
2022/04/19 07:53:16;;;;;;;11.63;2.50;;;9.40;99.90;;;;;;5011167;28;20195;-59
2022/04/19 07:55:42;;;;;;;13.77;2.10;;;9.60;99.90;;;;;;5011127;28;20526;-60
2022/04/19 07:58:08;;;;;;;11.27;2.20;;;9.80;99.90;;;;;;5010976;28;20173;-59
2022/04/19 08:00:34;;;;;;;5.37;2.07;;;9.90;99.90;;;;;;5010806;28;20260;-59
2022/04/19 08:03:00;;;;;;;10.10;3.17;;;9.90;99.90;;;;;;5010894;28;20221;-59
2022/04/19 08:05:26;;;;;;;7.23;2.80;;;10.10;99.90;;;;;;5010845;28;20163;-59
2022/04/19 08:07:52;;;;;;;5.00;2.00;;;10.10;99.90;;;;;;5010624;28;20638;-57
2022/04/19 08:10:19;;;;;;;11.30;3.00;;;10.40;99.90;;;;;;5010886;28;20178;-57
2022/04/19 08:12:45;;;;;;;4.67;1.83;;;10.60;99.90;;;;;;5010919;28;20700;-58
2022/04/19 08:15:12;;;;;;;10.47;2.13;;;11.90;99.90;;;;;;5010911;28;20248;-58
2022/04/19 08:17:38;;;;;;;3.60;1.50;;;13.30;99.90;;;;;;5010713;28;20633;-58
2022/04/19 08:20:05;;;;;;;6.53;1.30;;;14.30;99.90;;;;;;5010599;28;20178;-58
2022/04/19 08:22:31;;;;;;;8.32;1.20;;;14.80;99.90;;;;;;5009237;28;20202;-58
2022/04/19 08:24:57;;;;;;;6.90;1.10;;;15.80;99.90;;;;;;5009323;28;20249;-58
2022/04/19 08:27:23;;;;;;;3.72;0.93;;;15.20;99.90;;;;;;5010750;28;20575;-58
2022/04/19 08:29:49;;;;;;;12.52;1.85;;;14.70;99.90;;;;;;5010699;28;20182;-59
2022/04/19 08:32:15;;;;;;;10.20;1.67;;;15.20;99.90;;;;;;5010591;28;20253;-58
2022/04/19 08:34:41;;;;;;;7.18;1.05;;;16.20;99.90;;;;;;5010723;28;20221;-59
2022/04/19 08:37:09;;;;;;;5.00;1.17;;;16.70;99.90;;;;;;5010427;28;20174;-59
2022/04/19 08:39:34;;;;;;;5.70;1.27;;;16.60;99.90;;;;;;5010520;28;20182;-59
2022/04/19 08:42:00;;;;;;;5.07;1.10;;;15.90;99.90;;;;;;5012714;28;20665;-59
2022/04/19 08:44:26;;;;;;;4.55;1.02;;;16.30;99.90;;;;;;5014707;28;20272;-59
2022/04/19 08:46:55;;;;;;;2.55;0.80;;;16.50;99.90;;;;;;5014505;28;20253;-59
2022/04/19 08:49:21;;;;;;;6.32;0.85;;;16.30;99.90;;;;;;5014279;28;20182;-59
2022/04/19 08:51:47;;;;;;;4.03;1.20;;;16.10;99.90;;;;;;5014390;28;20170;-59
2022/04/19 08:59:42;;;;;;;4.95;1.10;;;17.00;99.90;;;;;;5014292;28;20224;-58
2022/04/19 09:02:17;;;;;;;6.25;1.35;;;17.00;99.90;;;;;;5014115;28;20190;-59
2022/04/19 09:04:43;;;;;;;5.53;1.10;;;17.50;99.90;;;;;;5014272;28;20612;-59
2022/04/19 09:07:09;;;;;;;2.75;0.80;;;17.50;99.90;;;;;;5013993;28;20179;-59
2022/04/19 09:09:37;;;;;;;3.58;1.00;;;17.00;99.90;;;;;;5013947;28;20219;-59
2022/04/19 09:12:11;;;;;;;4.30;1.20;;;17.50;99.90;;;;;;5013917;28;20716;-59
2022/04/19 09:15:03;;;;;;;3.45;1.00;;;18.00;99.90;;;;;;5013661;28;20175;-60
2022/04/19 09:17:31;;;;;;;3.72;1.00;;;17.70;99.90;;;;;;5013859;28;20170;-59
2022/04/19 09:20:10;;;;;;;5.82;1.10;;;16.80;99.90;;;;;;5013768;28;20171;-59
2022/04/19 09:22:37;;;;;;;2.88;0.95;;;16.80;99.90;;;;;;5013831;28;20333;-59
2022/04/19 09:25:20;;;;;;;5.18;0.95;;;17.80;99.90;;;;;;5013771;28;20653;-59
2022/04/19 09:27:47;;;;;;;3.15;1.00;;;19.20;99.90;;;;;;5013667;28;20173;-59
2022/04/19 09:30:25;;;;;;;3.70;0.90;;;19.80;99.90;;;;;;5013833;28;20661;-59
2022/04/19 09:33:01;;;;;;;4.63;0.95;;;19.90;99.90;;;;;;5013626;28;20178;-59
2022/04/19 09:35:37;;;;;;;5.22;0.90;;;20.10;99.90;;;;;;5013699;28;20248;-59
2022/04/19 09:38:05;;;;;;;4.55;1.48;;;20.90;99.90;;;;;;5013697;28;20224;-59
2022/04/19 09:40:36;;;;;;;3.13;1.00;;;19.30;99.90;;;;;;5013413;28;20208;-59
2022/04/19 09:43:11;;;;;;;3.90;1.27;;;18.70;99.90;;;;;;5013409;28;20209;-59
2022/04/19 09:45:58;;;;;;;4.68;1.38;;;19.90;99.90;;;;;;5013354;28;20167;-59
2022/04/19 09:48:24;;;;;;;5.75;1.23;;;20.60;99.90;;;;;;5013408;28;20194;-59
2022/04/19 09:54:21;;;;;;;6.03;1.20;;;21.00;99.90;;;;;;5013427;28;20408;-59
2022/04/19 09:56:48;;;;;;;7.97;0.98;;;21.30;99.90;;;;;;5013040;28;20229;-59
2022/04/19 09:59:17;;;;;;;4.70;1.30;;;21.40;99.90;;;;;;5013249;28;20163;-59
2022/04/19 10:10:08;;;;;;;2.78;0.90;;;22.90;99.90;;;;;;5013116;28;20575;-59
2022/04/19 10:12:35;;;;;;;4.97;1.10;;;22.40;99.90;;;;;;5012879;28;20182;-59
2022/04/19 10:15:57;;;;;;;3.10;0.70;;;21.50;99.90;;;;;;5012793;28;20257;-59
2022/04/19 10:18:23;;;;;;;2.50;0.70;;;22.30;99.90;;;;;;5012705;28;20170;-60
2022/04/19 10:20:53;;;;;;;3.58;0.77;;;22.00;99.90;;;;;;5012616;28;20530;-59
2022/04/19 10:23:20;;;;;;;3.45;0.80;;;22.00;99.90;;;;;;5012550;28;20237;-59
2022/04/19 10:25:48;;;;;;;8.75;1.02;;;22.20;99.90;;;;;;5012283;28;20166;-59
2022/04/19 10:28:15;;;;;;;5.95;1.10;;;22.50;99.90;;;;;;5012571;28;20171;-59
2022/04/19 10:31:19;;;;;;;6.45;1.10;;;22.80;99.90;;;;;;5012360;28;20185;-59
2022/04/19 10:34:22;;;;;;;2.22;0.80;;;22.40;99.90;;;;;;5012443;28;20163;-59
2022/04/19 10:36:53;;;;;;;1.52;0.60;;;22.30;99.90;;;;;;5011925;28;20163;-59
2022/04/19 10:39:21;;;;;;;3.60;1.00;;;23.00;99.90;;;;;;5011145;28;20233;-59
2022/04/19 10:41:47;;;;;;;3.92;0.73;;;22.30;99.90;;;;;;5012454;28;20192;-59
2022/04/19 10:47:55;;;;;;;3.05;0.85;;;23.00;99.90;;;;;;5012430;28;20185;-59
2022/04/19 10:50:33;;;;;;;4.68;0.88;;;20.60;99.90;;;;;;5012072;28;20221;-59
2022/04/19 10:53:30;;;;;;;5.07;0.93;;;20.70;99.90;;;;;;5012104;28;20232;-58
2022/04/19 10:56:02;;;;;;;4.35;1.50;;;21.20;99.90;;;;;;5012153;28;20706;-59
2022/04/19 10:58:44;;;;;;;4.32;0.90;;;21.50;99.90;;;;;;5012020;28;20186;-59
2022/04/19 11:01:39;;;;;;;3.72;0.90;;;21.90;99.90;;;;;;5011828;28;20220;-59
2022/04/19 11:04:05;;;;;;;2.28;0.77;;;21.80;99.90;;;;;;4998511;28;20295;-59
2022/04/19 11:06:35;;;;;;;2.85;0.68;;;20.90;99.90;;;;;;5011951;28;20177;-59
2022/04/19 11:09:26;;;;;;;3.85;0.73;;;20.40;99.90;;;;;;5011705;28;20221;-59
2022/04/19 11:11:53;;;;;;;5.47;1.10;;;19.60;99.90;;;;;;5010958;28;20252;-58
2022/04/19 11:14:43;;;;;;;6.35;0.88;;;18.90;99.90;;;;;;5011703;28;20277;-55
2022/04/19 11:17:21;;;;;;;4.25;0.70;;;18.00;99.90;;;;;;5011622;28;20163;-57
2022/04/19 11:20:07;;;;;;;2.70;0.63;;;17.70;99.90;;;;;;5011586;28;20198;-58
2022/04/19 11:22:46;;;;;;;2.85;0.70;;;17.70;99.90;;;;;;5011515;28;20677;-58
2022/04/19 11:25:12;;;;;;;6.13;0.95;;;17.60;99.90;;;;;;5011616;28;20209;-57
2022/04/19 11:27:53;;;;;;;3.15;0.80;;;17.20;99.90;;;;;;5011329;28;20553;-57
2022/04/19 11:30:25;;;;;;;7.35;1.35;;;16.80;99.90;;;;;;5011176;28;20197;-58
2022/04/19 11:32:53;;;;;;;2.25;0.70;;;16.60;99.90;;;;;;5011388;28;20178;-57
2022/04/19 11:35:20;;;;;;;1.60;0.70;;;16.30;99.90;;;;;;5011239;28;20174;-57
2022/04/19 11:37:46;;;;;;;2.63;0.77;;;16.40;99.90;;;;;;5011214;28;20171;-57
2022/04/19 11:48:47;;;;;;;5.22;0.90;;;16.30;99.90;;;;;;5011243;28;20225;-58
2022/04/19 11:51:14;;;;;;;4.38;0.90;;;16.40;99.90;;;;;;5010948;28;20167;-58
2022/04/19 11:53:41;;;;;;;2.40;0.80;;;16.30;99.90;;;;;;5011030;28;20179;-57
2022/04/19 11:56:07;;;;;;;7.13;1.10;;;15.70;99.90;;;;;;5010652;28;20254;-57
2022/04/19 11:58:34;;;;;;;3.95;1.02;;;15.90;99.90;;;;;;5010882;28;20182;-57
2022/04/19 12:01:04;;;;;;;4.88;1.00;;;16.10;99.90;;;;;;5010826;28;20174;-57
2022/04/19 12:03:32;;;;;;;5.70;1.33;;;16.30;99.90;;;;;;5010663;28;20222;-58
2022/04/19 12:06:10;;;;;;;2.33;0.90;;;16.60;99.90;;;;;;5010781;28;20170;-57
2022/04/19 12:08:53;;;;;;;5.80;1.05;;;16.80;99.90;;;;;;5010896;28;20185;-57
2022/04/19 12:11:30;;;;;;;3.25;0.95;;;17.50;99.90;;;;;;5010606;28;20179;-57
2022/04/19 12:13:57;;;;;;;2.38;0.90;;;17.80;99.90;;;;;;5010553;28;20201;-59
2022/04/19 12:16:30;;;;;;;4.28;1.27;;;17.80;99.90;;;;;;5009893;28;20176;-59
2022/04/19 12:19:02;;;;;;;6.60;1.00;;;18.30;99.90;;;;;;5010817;28;20197;-58
2022/04/19 12:21:38;;;;;;;4.53;1.10;;;19.60;99.90;;;;;;5010923;28;20252;-59
2022/04/19 12:24:06;;;;;;;7.55;1.40;;;20.80;99.90;;;;;;5010643;28;20221;-60
2022/04/19 12:26:32;;;;;;;1999.90;427.77;;;20.30;99.90;;;;;;5010653;28;20633;-59
2022/04/19 12:29:12;;;;;;;114.68;8.85;;;18.80;99.90;;;;;;5010444;28;20167;-59
2022/04/19 12:31:40;;;;;;;13.00;1.58;;;18.10;99.90;;;;;;5010297;28;20174;-59
2022/04/19 12:34:09;;;;;;;11.55;1.50;;;17.40;99.90;;;;;;5010342;28;20210;-59
2022/04/19 12:36:50;;;;;;;8.00;1.15;;;17.10;99.90;;;;;;5010838;28;20467;-59
2022/04/19 12:39:21;;;;;;;9.60;1.30;;;16.40;99.90;;;;;;5010569;28;20273;-59
2022/04/19 12:41:49;;;;;;;6.95;1.10;;;16.20;99.90;;;;;;5010559;28;20221;-58
2022/04/19 12:44:17;;;;;;;10.35;1.75;;;15.70;99.90;;;;;;5010404;28;20284;-57
2022/04/19 12:46:53;;;;;;;6.72;1.23;;;15.80;99.90;;;;;;5010590;28;20194;-57
2022/04/19 12:49:25;;;;;;;8.73;1.65;;;16.20;99.90;;;;;;5008881;28;20194;-57
2022/04/19 12:52:17;;;;;;;4.63;1.15;;;16.40;99.90;;;;;;5010426;28;20205;-58
2022/04/19 12:54:47;;;;;;;3.17;1.15;;;16.90;99.90;;;;;;5007525;28;20191;-58
2022/04/19 12:57:23;;;;;;;10.15;1.10;;;18.00;99.90;;;;;;5009905;28;20249;-58
2022/04/19 12:59:50;;;;;;;11.13;2.80;;;19.20;99.90;;;;;;5010152;28;20170;-58
2022/04/19 13:02:20;;;;;;;8.93;1.77;;;19.30;99.90;;;;;;5009053;28;20174;-59
2022/04/19 13:04:46;;;;;;;7.03;1.90;;;18.60;99.90;;;;;;5010532;28;20198;-58
2022/04/19 13:12:41;;;;;;;4.88;0.98;;;16.90;99.90;;;;;;5010668;28;20228;-58
2022/04/19 13:15:08;;;;;;;12.00;1.77;;;16.50;99.90;;;;;;5010384;28;20256;-57
2022/04/19 13:17:37;;;;;;;4.15;1.45;;;16.50;99.90;;;;;;5009945;28;20289;-57
2022/04/19 13:20:04;;;;;;;7.18;1.52;;;16.50;99.90;;;;;;5009935;28;20174;-58
2022/04/19 13:22:30;;;;;;;7.72;1.60;;;16.40;99.90;;;;;;5010055;28;20202;-58
2022/04/19 13:24:57;;;;;;;5.88;1.58;;;16.60;99.90;;;;;;5009820;28;20178;-58
2022/04/19 13:27:29;;;;;;;6.45;1.48;;;16.90;99.90;;;;;;5010941;28;20170;-58
2022/04/19 13:29:54;;;;;;;5.88;1.65;;;17.10;99.90;;;;;;5013340;28;20178;-58
2022/04/19 13:32:21;;;;;;;6.47;1.90;;;17.00;99.90;;;;;;5013419;28;20181;-57
2022/04/19 13:34:47;;;;;;;10.30;1.90;;;16.80;99.90;;;;;;5013739;28;20221;-57
2022/04/19 13:37:16;;;;;;;5.50;1.77;;;16.80;99.90;;;;;;5013548;28;20166;-59
2022/04/19 13:39:41;;;;;;;11.02;1.80;;;16.70;99.90;;;;;;5013699;28;20541;-57
2022/04/19 13:42:07;;;;;;;10.57;2.08;;;16.60;99.90;;;;;;5013399;28;20258;-57
2022/04/19 13:44:33;;;;;;;5.55;2.10;;;16.70;99.90;;;;;;5013043;28;20755;-57
2022/04/19 13:46:59;;;;;;;9.27;1.90;;;17.60;99.90;;;;;;5013249;28;20629;-57
2022/04/19 13:49:25;;;;;;;5.85;1.90;;;18.30;99.90;;;;;;5013244;28;20591;-58
2022/04/19 13:51:52;;;;;;;19.17;2.28;;;19.50;99.90;;;;;;5011950;28;20538;-59
2022/04/19 13:54:18;;;;;;;7.20;1.70;;;19.10;99.90;;;;;;5013240;28;20182;-59